Аэропорт
Полярный (UERP)

 UERP / PYJ
ЗЦ Хабаровск
Якутск (UEEE)
Якутск (UEEE)
 66.40040, 112.03000  / 1660 ft

 UERP 250400Z 27004MPS CAVOK M13/M16 Q1017 NOSIG RMK QFE718
 TAF UERP 250200Z 2503/2603 25003G08MPS 9999 SCT025 BECMG 2506/2508 VRB01MPS
UERP_j_0220
показать схемы
Название сценария Тип сценария Flight Simulator 9 Flight Simulator X Prepar3D v2 Prepar3D v3 Prepar3D v4 Prepar3D v5 xPlane
UERP FS9 бесплатный
UERP_P3D_v.4.4 бесплатный


2020 © VATRUS division (Privacy Policy)